createdAt,value
2019-03-15T00:03:06.427Z,78.13
2019-03-15T00:08:10.802Z,79.97
2019-03-15T00:13:15.149Z,79.10
2019-03-15T00:18:19.994Z,78.10
2019-03-15T00:23:24.341Z,77.78
2019-03-15T00:28:28.716Z,76.63
2019-03-15T00:33:33.128Z,77.26
2019-03-15T00:38:37.493Z,79.36
2019-03-15T00:43:41.849Z,79.88
2019-03-15T00:48:46.246Z,80.75
2019-03-15T00:53:53.953Z,80.33
2019-03-15T00:58:56.765Z,80.07
2019-03-15T01:04:01.161Z,78.60
2019-03-15T01:09:06.477Z,77.96
2019-03-15T01:14:10.854Z,77.61
2019-03-15T01:19:15.199Z,76.75
2019-03-15T01:24:19.598Z,75.56
2019-03-15T01:29:23.936Z,75.56
2019-03-15T01:34:28.268Z,75.31
2019-03-15T01:39:32.629Z,74.84
2019-03-15T01:44:37.035Z,74.37
2019-03-15T01:49:44.428Z,74.03
2019-03-15T01:54:47.481Z,73.89
2019-03-15T01:59:51.870Z,73.56
2019-03-15T02:04:56.242Z,73.42
2019-03-15T02:10:00.642Z,73.83
2019-03-15T02:15:08.253Z,73.69
2019-03-15T02:20:12.637Z,75.28
2019-03-15T02:25:16.978Z,75.52
2019-03-15T02:30:21.338Z,75.84
2019-03-15T02:35:25.842Z,75.20
2019-03-15T02:40:30.252Z,72.69
2019-03-15T02:45:34.654Z,72.71
2019-03-15T02:50:39.115Z,71.74
2019-03-15T02:55:43.462Z,71.37
2019-03-15T03:00:47.908Z,71.98
2019-03-15T03:05:52.268Z,72.93
2019-03-15T03:10:56.648Z,73.06
2019-03-15T03:16:00.998Z,73.57
2019-03-15T03:21:05.342Z,72.89
2019-03-15T03:26:09.714Z,72.27
2019-03-15T03:31:15.495Z,71.48
2019-03-15T03:36:20.265Z,71.55
2019-03-15T03:41:24.628Z,71.40
2019-03-15T03:46:29.063Z,70.51
2019-03-15T03:51:33.424Z,69.77
2019-03-15T03:56:37.760Z,69.19
2019-03-15T04:01:42.155Z,69.32
2019-03-15T04:06:46.613Z,69.37
2019-03-15T04:11:55.730Z,69.34
2019-03-15T04:16:57.199Z,69.75
2019-03-15T04:22:01.660Z,68.95
2019-03-15T04:27:06.085Z,69.29
2019-03-15T04:32:10.431Z,69.22
2019-03-15T04:37:14.787Z,68.98
2019-03-15T04:42:19.120Z,69.17
2019-03-15T04:47:23.475Z,68.95
2019-03-15T04:52:27.848Z,68.72
2019-03-15T04:57:32.330Z,68.73
2019-03-15T05:02:37.390Z,69.86
2019-03-15T05:07:41.823Z,69.92
2019-03-15T05:12:46.265Z,69.29
2019-03-15T05:17:50.663Z,69.47
2019-03-15T05:22:54.994Z,69.29
2019-03-15T05:27:59.371Z,68.43
2019-03-15T05:33:03.747Z,65.22
2019-03-15T05:38:08.116Z,66.11
2019-03-15T05:43:12.481Z,65.75
2019-03-15T05:48:16.850Z,65.71
2019-03-15T05:53:21.206Z,67.54
2019-03-15T05:58:25.547Z,67.59
2019-03-15T06:03:29.936Z,66.84
2019-03-15T06:08:34.337Z,67.11
2019-03-15T06:13:38.858Z,67.03
2019-03-15T06:18:43.258Z,67.00
2019-03-15T06:23:47.592Z,66.82
2019-03-15T06:28:52.043Z,65.67
2019-03-15T06:33:56.527Z,66.62
2019-03-15T06:39:00.903Z,66.14
2019-03-15T06:44:05.637Z,66.80
2019-03-15T06:49:10.455Z,66.75
2019-03-15T06:54:14.878Z,66.25
2019-03-15T06:59:19.238Z,65.33
2019-03-15T07:04:23.592Z,64.21
2019-03-15T07:09:30.745Z,64.30
2019-03-15T07:14:33.977Z,64.38
2019-03-15T07:19:39.296Z,64.42
2019-03-15T07:24:44.100Z,64.33
2019-03-15T07:29:48.668Z,65.17
2019-03-15T07:34:53.032Z,65.65
2019-03-15T07:39:57.347Z,65.17
2019-03-15T07:45:01.752Z,65.45
2019-03-15T07:50:09.261Z,66.20
2019-03-15T07:55:13.611Z,65.25
2019-03-15T08:00:18.600Z,64.98
2019-03-15T08:05:22.978Z,64.46
2019-03-15T08:10:27.332Z,65.49
2019-03-15T08:15:31.698Z,64.72
2019-03-15T08:20:36.073Z,64.97
2019-03-15T08:25:40.414Z,64.16
2019-03-15T08:30:44.827Z,64.00
2019-03-15T08:35:49.198Z,64.11
2019-03-15T08:40:53.687Z,63.26
2019-03-15T08:45:58.003Z,63.28
2019-03-15T08:51:02.436Z,62.51
2019-03-15T08:56:07.829Z,63.19
2019-03-15T09:01:12.275Z,63.00
2019-03-15T09:06:16.634Z,62.06
2019-03-15T09:11:21.085Z,61.43
2019-03-15T09:16:25.498Z,61.50
2019-03-15T09:21:29.909Z,61.61
2019-03-15T09:26:34.341Z,60.58
2019-03-15T09:31:47.691Z,60.39
2019-03-15T09:36:50.332Z,59.97
2019-03-15T09:41:51.060Z,59.67
2019-03-15T09:46:55.423Z,59.50
2019-03-15T09:51:59.812Z,58.91
2019-03-15T09:57:04.166Z,58.85
2019-03-15T10:02:08.658Z,59.42
2019-03-15T10:07:13.031Z,58.63
2019-03-15T10:12:17.407Z,58.59
2019-03-15T10:17:23.094Z,58.23
2019-03-15T10:22:27.619Z,57.49
2019-03-15T10:27:31.991Z,57.03
2019-03-15T10:32:36.370Z,56.63
2019-03-15T10:37:40.737Z,56.47
2019-03-15T10:42:46.072Z,55.56
2019-03-15T10:47:50.428Z,55.29
2019-03-15T10:52:54.861Z,54.38
2019-03-15T10:57:59.180Z,54.38
2019-03-15T11:03:03.553Z,54.10
2019-03-15T11:08:07.925Z,54.49
2019-03-15T11:13:12.282Z,55.17
2019-03-15T11:18:16.634Z,55.41
2019-03-15T11:23:21.171Z,55.64
2019-03-15T11:28:25.515Z,55.28
2019-03-15T11:33:29.899Z,55.16
2019-03-15T11:38:34.248Z,55.91
2019-03-15T11:43:38.632Z,56.10
2019-03-15T11:48:42.999Z,55.83
2019-03-15T11:53:47.389Z,55.58
2019-03-15T11:58:51.744Z,55.94
2019-03-15T12:03:56.115Z,57.89
2019-03-15T12:09:00.512Z,58.97
2019-03-15T12:14:04.863Z,61.71
2019-03-15T12:19:09.258Z,61.83
2019-03-15T12:24:13.616Z,60.25
2019-03-15T12:29:17.999Z,61.00
2019-03-15T12:34:22.391Z,60.63
2019-03-15T12:39:26.735Z,62.19
2019-03-15T12:44:31.089Z,62.31
2019-03-15T12:49:35.436Z,62.99
2019-03-15T12:54:39.804Z,63.53
2019-03-15T12:59:44.146Z,63.69
2019-03-15T13:04:52.053Z,65.16
2019-03-15T13:09:55.642Z,67.86
2019-03-15T13:14:59.954Z,68.70
2019-03-15T13:20:05.726Z,68.93
2019-03-15T13:25:11.233Z,70.11
2019-03-15T13:30:16.540Z,70.39
2019-03-15T13:35:20.955Z,69.54
2019-03-15T13:40:25.414Z,68.35
2019-03-15T13:45:29.939Z,68.99
2019-03-15T13:50:34.348Z,68.53
2019-03-15T13:55:38.701Z,69.84
2019-03-15T14:00:44.177Z,70.03
2019-03-15T14:05:48.512Z,72.07
2019-03-15T14:10:53.925Z,71.88
2019-03-15T14:16:01.434Z,72.59
2019-03-15T14:21:04.338Z,75.48
2019-03-15T14:26:09.786Z,75.83
2019-03-15T14:31:14.197Z,76.19
2019-03-15T14:36:18.553Z,75.55
2019-03-15T14:41:23.743Z,76.96
2019-03-15T14:46:28.274Z,76.85
2019-03-15T14:51:32.629Z,77.50
2019-03-15T14:56:36.978Z,78.48
2019-03-15T15:01:41.365Z,78.43
2019-03-15T15:06:45.736Z,79.97
2019-03-15T15:11:50.047Z,80.41
2019-03-15T15:16:54.391Z,80.81
2019-03-15T15:21:59.853Z,81.90
2019-03-15T15:27:04.330Z,81.36
2019-03-15T15:32:08.814Z,83.38
2019-03-15T15:37:13.226Z,81.70
2019-03-15T15:42:17.571Z,81.62
2019-03-15T15:47:21.952Z,81.31
2019-03-15T15:52:26.377Z,81.45
2019-03-15T15:57:30.782Z,81.35
2019-03-15T16:02:35.423Z,81.32
2019-03-15T16:07:39.863Z,81.18
2019-03-15T16:12:44.336Z,79.92
2019-03-15T16:17:48.690Z,79.64
2019-03-15T16:22:54.103Z,78.86
2019-03-15T16:27:59.885Z,78.83
2019-03-15T16:33:06.163Z,78.97
2019-03-15T16:38:12.141Z,80.52
2019-03-15T16:43:18.877Z,80.02
2019-03-15T16:48:23.349Z,79.28
2019-03-15T16:53:27.782Z,78.31
2019-03-15T16:58:44.454Z,77.95
2019-03-15T17:03:38.229Z,77.95
2019-03-15T17:08:42.740Z,77.59
2019-03-15T17:13:47.085Z,78.07
2019-03-15T17:18:51.455Z,78.04
2019-03-15T17:23:55.797Z,77.33
2019-03-15T17:29:00.221Z,77.33
2019-03-15T17:34:04.603Z,78.00
2019-03-15T17:39:09.745Z,77.82
2019-03-15T17:44:23.352Z,77.38
2019-03-15T17:49:27.730Z,77.78
2019-03-15T17:54:32.084Z,77.84
2019-03-15T17:59:36.465Z,77.97
2019-03-15T18:04:40.931Z,77.59
2019-03-15T18:09:45.275Z,76.41
2019-03-15T18:14:50.204Z,76.87
2019-03-15T18:19:54.535Z,75.44
2019-03-15T18:24:58.948Z,76.00
2019-03-15T18:30:04.157Z,79.24
2019-03-15T18:35:10.084Z,81.76
2019-03-15T18:40:16.596Z,85.38
2019-03-15T18:45:20.952Z,84.75
2019-03-15T18:50:26.339Z,84.36
2019-03-15T18:55:30.706Z,86.65
2019-03-15T19:00:35.154Z,88.07
2019-03-15T19:05:39.541Z,89.40
2019-03-15T19:10:43.904Z,89.83
2019-03-15T19:15:48.369Z,90.71
2019-03-15T19:20:53.132Z,89.99
2019-03-15T19:25:57.505Z,90.67
2019-03-15T19:31:01.953Z,90.30
2019-03-15T19:36:06.342Z,89.72
2019-03-15T19:41:10.731Z,89.13
2019-03-15T19:46:15.194Z,89.26
2019-03-15T19:51:19.741Z,88.04
2019-03-15T19:56:24.180Z,88.40
2019-03-15T20:01:29.150Z,87.28
2019-03-15T20:06:33.590Z,83.32
2019-03-15T20:11:38.025Z,83.26
2019-03-15T20:16:42.420Z,79.52
2019-03-15T20:21:46.839Z,78.52
2019-03-15T20:26:51.659Z,78.67
2019-03-15T20:31:56.192Z,79.00
2019-03-15T20:37:00.628Z,72.80
2019-03-15T20:42:05.130Z,73.04
2019-03-15T20:47:09.550Z,71.62
2019-03-15T20:52:13.911Z,71.49
2019-03-15T20:57:19.963Z,71.99
2019-03-15T21:02:24.292Z,72.23
2019-03-15T21:07:28.698Z,73.44
2019-03-15T21:12:33.273Z,72.09
2019-03-15T21:17:37.648Z,72.26
2019-03-15T21:22:42.120Z,68.62
2019-03-15T21:27:53.475Z,67.79
2019-03-15T21:32:52.652Z,65.23
2019-03-15T21:37:57.212Z,64.06
2019-03-15T21:43:01.633Z,64.91
2019-03-15T21:48:05.956Z,66.94
2019-03-15T21:53:10.331Z,67.63
2019-03-15T21:58:14.702Z,62.62
2019-03-15T22:03:19.087Z,62.05
2019-03-15T22:08:24.535Z,59.56
2019-03-15T22:13:29.964Z,58.19
2019-03-15T22:18:34.310Z,58.14
2019-03-15T22:23:40.009Z,56.92
2019-03-15T22:28:44.376Z,56.44
2019-03-15T22:33:48.989Z,54.83
2019-03-15T22:38:53.352Z,55.07
2019-03-15T22:43:57.722Z,54.71
2019-03-15T22:49:03.023Z,55.74
2019-03-15T22:54:07.382Z,56.53
2019-03-15T22:59:11.767Z,57.04
2019-03-15T23:04:16.120Z,57.54
2019-03-15T23:09:20.557Z,55.29
2019-03-15T23:14:24.898Z,56.31
2019-03-15T23:19:30.261Z,55.65
2019-03-15T23:24:35.629Z,56.32
2019-03-15T23:29:39.983Z,56.52
2019-03-15T23:34:44.390Z,58.42
2019-03-15T23:39:48.829Z,58.26
2019-03-15T23:44:53.188Z,56.41
2019-03-15T23:49:57.587Z,55.49
2019-03-15T23:55:02.057Z,55.77
